sensor_id;sensor_type;location;lat;lon;timestamp;temperature;humidity
28087;DHT22;15392;48.912;8.380;2022-10-16T00:01:32;21.80;60.00
28087;DHT22;15392;48.912;8.380;2022-10-16T00:03:59;21.80;60.10
28087;DHT22;15392;48.912;8.380;2022-10-16T00:06:27;21.80;60.20
28087;DHT22;15392;48.912;8.380;2022-10-16T00:08:54;21.80;60.20
28087;DHT22;15392;48.912;8.380;2022-10-16T00:11:22;21.80;60.20
28087;DHT22;15392;48.912;8.380;2022-10-16T00:13:51;21.80;60.20
28087;DHT22;15392;48.912;8.380;2022-10-16T00:16:20;21.70;60.20
28087;DHT22;15392;48.912;8.380;2022-10-16T00:18:46;21.80;60.20
28087;DHT22;15392;48.912;8.380;2022-10-16T00:21:18;21.80;60.30
28087;DHT22;15392;48.912;8.380;2022-10-16T00:23:45;21.70;60.30
28087;DHT22;15392;48.912;8.380;2022-10-16T00:26:14;21.70;60.20
28087;DHT22;15392;48.912;8.380;2022-10-16T00:28:42;21.70;60.40
28087;DHT22;15392;48.912;8.380;2022-10-16T00:31:10;21.70;60.40
28087;DHT22;15392;48.912;8.380;2022-10-16T00:33:38;21.70;60.40
28087;DHT22;15392;48.912;8.380;2022-10-16T00:36:05;21.70;60.40
28087;DHT22;15392;48.912;8.380;2022-10-16T00:38:32;21.70;60.30
28087;DHT22;15392;48.912;8.380;2022-10-16T00:40:58;21.70;60.30
28087;DHT22;15392;48.912;8.380;2022-10-16T00:49:02;21.60;60.60
28087;DHT22;15392;48.912;8.380;2022-10-16T00:51:43;21.60;60.40
28087;DHT22;15392;48.912;8.380;2022-10-16T00:54:20;21.60;60.60
28087;DHT22;15392;48.912;8.380;2022-10-16T00:56:50;21.60;60.60
28087;DHT22;15392;48.912;8.380;2022-10-16T00:59:20;21.60;60.60
28087;DHT22;15392;48.912;8.380;2022-10-16T01:01:50;21.60;60.60
28087;DHT22;15392;48.912;8.380;2022-10-16T01:04:17;21.60;60.60
28087;DHT22;15392;48.912;8.380;2022-10-16T01:10:21;21.50;61.00
28087;DHT22;15392;48.912;8.380;2022-10-16T01:21:46;21.40;60.70
28087;DHT22;15392;48.912;8.380;2022-10-16T01:25:04;21.40;61.00
28087;DHT22;15392;48.912;8.380;2022-10-16T01:27:28;21.40;61.30
28087;DHT22;15392;48.912;8.380;2022-10-16T01:29:57;21.40;61.00
28087;DHT22;15392;48.912;8.380;2022-10-16T01:32:36;21.30;60.90
28087;DHT22;15392;48.912;8.380;2022-10-16T01:37:40;21.30;61.10
28087;DHT22;15392;48.912;8.380;2022-10-16T01:40:11;21.30;61.20
28087;DHT22;15392;48.912;8.380;2022-10-16T01:42:52;21.30;61.20
28087;DHT22;15392;48.912;8.380;2022-10-16T01:45:21;21.20;61.60
28087;DHT22;15392;48.912;8.380;2022-10-16T01:47:48;21.20;61.30
28087;DHT22;15392;48.912;8.380;2022-10-16T01:50:16;21.20;61.30
28087;DHT22;15392;48.912;8.380;2022-10-16T01:52:46;21.20;61.40
28087;DHT22;15392;48.912;8.380;2022-10-16T01:55:17;21.20;61.50
28087;DHT22;15392;48.912;8.380;2022-10-16T01:57:48;21.20;61.60
28087;DHT22;15392;48.912;8.380;2022-10-16T02:00:16;21.20;62.40
28087;DHT22;15392;48.912;8.380;2022-10-16T02:02:46;21.20;61.60
28087;DHT22;15392;48.912;8.380;2022-10-16T02:05:28;21.20;61.80
28087;DHT22;15392;48.912;8.380;2022-10-16T02:08:12;21.20;62.10
28087;DHT22;15392;48.912;8.380;2022-10-16T02:10:38;21.20;61.60
28087;DHT22;15392;48.912;8.380;2022-10-16T02:13:19;21.20;61.70
28087;DHT22;15392;48.912;8.380;2022-10-16T02:15:48;21.20;62.20
28087;DHT22;15392;48.912;8.380;2022-10-16T02:18:14;21.10;61.50
28087;DHT22;15392;48.912;8.380;2022-10-16T02:20:51;21.10;61.70
28087;DHT22;15392;48.912;8.380;2022-10-16T02:23:28;21.10;62.00
28087;DHT22;15392;48.912;8.380;2022-10-16T02:25:59;21.10;61.70
28087;DHT22;15392;48.912;8.380;2022-10-16T02:28:32;21.10;61.50
28087;DHT22;15392;48.912;8.380;2022-10-16T02:31:16;21.10;61.70
28087;DHT22;15392;48.912;8.380;2022-10-16T02:33:45;21.10;61.50
28087;DHT22;15392;48.912;8.380;2022-10-16T02:36:11;21.10;61.50
28087;DHT22;15392;48.912;8.380;2022-10-16T02:38:39;21.10;61.40
28087;DHT22;15392;48.912;8.380;2022-10-16T02:41:05;21.10;61.50
28087;DHT22;15392;48.912;8.380;2022-10-16T02:43:31;21.10;61.60
28087;DHT22;15392;48.912;8.380;2022-10-16T02:45:59;21.10;61.60
28087;DHT22;15392;48.912;8.380;2022-10-16T02:48:25;21.10;61.70
28087;DHT22;15392;48.912;8.380;2022-10-16T02:50:51;21.10;61.70
28087;DHT22;15392;48.912;8.380;2022-10-16T02:53:16;21.10;61.70
28087;DHT22;15392;48.912;8.380;2022-10-16T02:55:42;21.10;61.50
28087;DHT22;15392;48.912;8.380;2022-10-16T02:58:08;21.00;61.40
28087;DHT22;15392;48.912;8.380;2022-10-16T03:00:34;21.00;61.50
28087;DHT22;15392;48.912;8.380;2022-10-16T03:03:00;21.00;61.40
28087;DHT22;15392;48.912;8.380;2022-10-16T03:05:25;21.00;61.40
28087;DHT22;15392;48.912;8.380;2022-10-16T03:07:51;21.00;61.50
28087;DHT22;15392;48.912;8.380;2022-10-16T03:10:18;21.00;61.70
28087;DHT22;15392;48.912;8.380;2022-10-16T03:12:43;21.00;61.80
28087;DHT22;15392;48.912;8.380;2022-10-16T03:15:09;21.00;61.80
28087;DHT22;15392;48.912;8.380;2022-10-16T03:17:35;20.90;61.60
28087;DHT22;15392;48.912;8.380;2022-10-16T03:20:02;20.90;61.50
28087;DHT22;15392;48.912;8.380;2022-10-16T03:22:28;21.00;61.60
28087;DHT22;15392;48.912;8.380;2022-10-16T03:24:54;20.90;61.50
28087;DHT22;15392;48.912;8.380;2022-10-16T03:27:19;20.90;61.50
28087;DHT22;15392;48.912;8.380;2022-10-16T03:29:45;20.90;61.60
28087;DHT22;15392;48.912;8.380;2022-10-16T03:32:11;20.80;61.60
28087;DHT22;15392;48.912;8.380;2022-10-16T03:34:37;20.80;61.50
28087;DHT22;15392;48.912;8.380;2022-10-16T03:37:02;20.80;61.50
28087;DHT22;15392;48.912;8.380;2022-10-16T03:39:28;20.80;61.60
28087;DHT22;15392;48.912;8.380;2022-10-16T03:41:54;20.80;61.70
28087;DHT22;15392;48.912;8.380;2022-10-16T03:44:20;20.80;61.70
28087;DHT22;15392;48.912;8.380;2022-10-16T03:46:45;20.70;61.70
28087;DHT22;15392;48.912;8.380;2022-10-16T03:49:11;20.70;61.80
28087;DHT22;15392;48.912;8.380;2022-10-16T03:51:37;20.70;61.80
28087;DHT22;15392;48.912;8.380;2022-10-16T03:54:02;20.70;61.80
28087;DHT22;15392;48.912;8.380;2022-10-16T03:56:28;20.70;61.80
28087;DHT22;15392;48.912;8.380;2022-10-16T03:58:54;20.70;61.90
28087;DHT22;15392;48.912;8.380;2022-10-16T04:01:19;20.70;62.00
28087;DHT22;15392;48.912;8.380;2022-10-16T04:03:45;20.70;62.00
28087;DHT22;15392;48.912;8.380;2022-10-16T04:06:11;20.70;62.00
28087;DHT22;15392;48.912;8.380;2022-10-16T04:08:37;20.70;62.00
28087;DHT22;15392;48.912;8.380;2022-10-16T04:11:04;20.70;62.00
28087;DHT22;15392;48.912;8.380;2022-10-16T04:13:30;20.70;62.00
28087;DHT22;15392;48.912;8.380;2022-10-16T04:15:56;20.70;62.00
28087;DHT22;15392;48.912;8.380;2022-10-16T04:18:21;20.70;62.00
28087;DHT22;15392;48.912;8.380;2022-10-16T04:20:47;20.70;62.00
28087;DHT22;15392;48.912;8.380;2022-10-16T04:23:13;20.70;62.10
28087;DHT22;15392;48.912;8.380;2022-10-16T04:25:39;20.70;62.00
28087;DHT22;15392;48.912;8.380;2022-10-16T04:28:04;20.70;61.80
28087;DHT22;15392;48.912;8.380;2022-10-16T04:30:30;20.70;61.90
28087;DHT22;15392;48.912;8.380;2022-10-16T04:32:56;20.70;62.00
28087;DHT22;15392;48.912;8.380;2022-10-16T04:35:22;20.70;61.90
28087;DHT22;15392;48.912;8.380;2022-10-16T04:37:48;20.70;62.00
28087;DHT22;15392;48.912;8.380;2022-10-16T04:40:14;20.70;62.00
28087;DHT22;15392;48.912;8.380;2022-10-16T04:42:40;20.70;62.10
28087;DHT22;15392;48.912;8.380;2022-10-16T04:45:06;20.70;62.00
28087;DHT22;15392;48.912;8.380;2022-10-16T04:47:33;20.70;62.00
28087;DHT22;15392;48.912;8.380;2022-10-16T04:49:59;20.70;62.00
28087;DHT22;15392;48.912;8.380;2022-10-16T04:52:26;20.70;61.90
28087;DHT22;15392;48.912;8.380;2022-10-16T04:54:52;20.80;62.00
28087;DHT22;15392;48.912;8.380;2022-10-16T04:57:19;20.70;62.10
28087;DHT22;15392;48.912;8.380;2022-10-16T04:59:45;20.80;62.20
28087;DHT22;15392;48.912;8.380;2022-10-16T05:02:10;20.80;62.20
28087;DHT22;15392;48.912;8.380;2022-10-16T05:04:36;20.80;62.10
28087;DHT22;15392;48.912;8.380;2022-10-16T05:07:02;20.80;62.00
28087;DHT22;15392;48.912;8.380;2022-10-16T05:09:27;20.80;61.90
28087;DHT22;15392;48.912;8.380;2022-10-16T05:11:53;20.80;61.90
28087;DHT22;15392;48.912;8.380;2022-10-16T05:14:19;20.80;61.80
28087;DHT22;15392;48.912;8.380;2022-10-16T05:16:45;20.70;61.70
28087;DHT22;15392;48.912;8.380;2022-10-16T05:19:10;20.70;61.70
28087;DHT22;15392;48.912;8.380;2022-10-16T05:21:36;20.70;61.70
28087;DHT22;15392;48.912;8.380;2022-10-16T05:24:02;20.70;61.60
28087;DHT22;15392;48.912;8.380;2022-10-16T05:26:28;20.70;61.60
28087;DHT22;15392;48.912;8.380;2022-10-16T05:28:53;20.60;61.60
28087;DHT22;15392;48.912;8.380;2022-10-16T05:31:19;20.70;61.80
28087;DHT22;15392;48.912;8.380;2022-10-16T05:33:45;20.60;61.80
28087;DHT22;15392;48.912;8.380;2022-10-16T05:36:11;20.60;61.90
28087;DHT22;15392;48.912;8.380;2022-10-16T05:38:37;20.60;62.00
28087;DHT22;15392;48.912;8.380;2022-10-16T05:41:05;20.60;62.00
28087;DHT22;15392;48.912;8.380;2022-10-16T05:43:32;20.50;62.00
28087;DHT22;15392;48.912;8.380;2022-10-16T05:45:59;20.50;62.00
28087;DHT22;15392;48.912;8.380;2022-10-16T05:48:29;20.50;62.10
28087;DHT22;15392;48.912;8.380;2022-10-16T05:51:07;20.60;62.10
28087;DHT22;15392;48.912;8.380;2022-10-16T05:53:36;20.50;62.60
28087;DHT22;15392;48.912;8.380;2022-10-16T05:56:03;20.60;62.30
28087;DHT22;15392;48.912;8.380;2022-10-16T05:58:37;20.50;62.20
28087;DHT22;15392;48.912;8.380;2022-10-16T06:01:05;20.50;62.50
28087;DHT22;15392;48.912;8.380;2022-10-16T06:03:33;20.50;62.30
28087;DHT22;15392;48.912;8.380;2022-10-16T06:05:59;20.50;62.30
28087;DHT22;15392;48.912;8.380;2022-10-16T06:08:33;20.50;62.30
28087;DHT22;15392;48.912;8.380;2022-10-16T06:11:06;20.50;62.40
28087;DHT22;15392;48.912;8.380;2022-10-16T06:13:34;20.50;62.70
28087;DHT22;15392;48.912;8.380;2022-10-16T06:16:00;20.50;62.70
28087;DHT22;15392;48.912;8.380;2022-10-16T06:18:27;20.50;62.50
28087;DHT22;15392;48.912;8.380;2022-10-16T06:20:54;20.50;62.40
28087;DHT22;15392;48.912;8.380;2022-10-16T06:23:21;20.50;62.50
28087;DHT22;15392;48.912;8.380;2022-10-16T06:25:46;20.50;62.40
28087;DHT22;15392;48.912;8.380;2022-10-16T06:28:14;20.50;62.40
28087;DHT22;15392;48.912;8.380;2022-10-16T06:30:40;20.50;62.40
28087;DHT22;15392;48.912;8.380;2022-10-16T06:33:09;20.50;62.40
28087;DHT22;15392;48.912;8.380;2022-10-16T06:35:36;20.50;62.40
28087;DHT22;15392;48.912;8.380;2022-10-16T06:38:02;20.50;62.50
28087;DHT22;15392;48.912;8.380;2022-10-16T06:40:27;20.50;62.50
28087;DHT22;15392;48.912;8.380;2022-10-16T06:42:57;20.50;63.30
28087;DHT22;15392;48.912;8.380;2022-10-16T06:45:23;20.50;62.70
28087;DHT22;15392;48.912;8.380;2022-10-16T06:47:48;20.50;62.60
28087;DHT22;15392;48.912;8.380;2022-10-16T06:50:14;20.50;62.70
28087;DHT22;15392;48.912;8.380;2022-10-16T06:52:40;20.50;62.70
28087;DHT22;15392;48.912;8.380;2022-10-16T06:55:06;20.50;62.70
28087;DHT22;15392;48.912;8.380;2022-10-16T06:57:32;20.60;62.70
28087;DHT22;15392;48.912;8.380;2022-10-16T06:59:58;20.60;62.70
28087;DHT22;15392;48.912;8.380;2022-10-16T07:02:23;20.50;62.70
28087;DHT22;15392;48.912;8.380;2022-10-16T07:04:49;20.60;63.60
28087;DHT22;15392;48.912;8.380;2022-10-16T07:07:15;20.60;62.80
28087;DHT22;15392;48.912;8.380;2022-10-16T07:09:40;20.60;62.80
28087;DHT22;15392;48.912;8.380;2022-10-16T07:12:06;20.60;62.90
28087;DHT22;15392;48.912;8.380;2022-10-16T07:14:32;20.60;62.90
28087;DHT22;15392;48.912;8.380;2022-10-16T07:16:58;20.60;62.90
28087;DHT22;15392;48.912;8.380;2022-10-16T07:19:23;20.70;63.10
28087;DHT22;15392;48.912;8.380;2022-10-16T07:21:50;20.70;63.20
28087;DHT22;15392;48.912;8.380;2022-10-16T07:24:16;20.70;63.30
28087;DHT22;15392;48.912;8.380;2022-10-16T07:26:44;20.80;63.40
28087;DHT22;15392;48.912;8.380;2022-10-16T07:29:16;20.80;63.40
28087;DHT22;15392;48.912;8.380;2022-10-16T07:31:44;20.80;63.60
28087;DHT22;15392;48.912;8.380;2022-10-16T07:34:12;20.90;63.50
28087;DHT22;15392;48.912;8.380;2022-10-16T07:36:39;20.90;63.50
28087;DHT22;15392;48.912;8.380;2022-10-16T07:39:05;20.90;63.50
28087;DHT22;15392;48.912;8.380;2022-10-16T07:41:30;21.00;63.50
28087;DHT22;15392;48.912;8.380;2022-10-16T07:43:58;21.00;63.40
28087;DHT22;15392;48.912;8.380;2022-10-16T07:46:26;21.10;63.40
28087;DHT22;15392;48.912;8.380;2022-10-16T07:48:52;21.10;63.30
28087;DHT22;15392;48.912;8.380;2022-10-16T07:51:21;21.10;63.20
28087;DHT22;15392;48.912;8.380;2022-10-16T07:53:48;21.20;63.30
28087;DHT22;15392;48.912;8.380;2022-10-16T07:56:15;21.20;63.20
28087;DHT22;15392;48.912;8.380;2022-10-16T07:58:42;21.20;63.20
28087;DHT22;15392;48.912;8.380;2022-10-16T08:01:10;21.20;63.10
28087;DHT22;15392;48.912;8.380;2022-10-16T08:03:41;21.30;63.10
28087;DHT22;15392;48.912;8.380;2022-10-16T08:06:07;21.30;63.80
28087;DHT22;15392;48.912;8.380;2022-10-16T08:08:33;21.30;63.00
28087;DHT22;15392;48.912;8.380;2022-10-16T08:10:59;21.40;63.00
28087;DHT22;15392;48.912;8.380;2022-10-16T08:13:25;21.40;63.00
28087;DHT22;15392;48.912;8.380;2022-10-16T08:15:53;21.40;63.00
28087;DHT22;15392;48.912;8.380;2022-10-16T08:18:19;21.50;62.90
28087;DHT22;15392;48.912;8.380;2022-10-16T08:20:44;21.50;62.80
28087;DHT22;15392;48.912;8.380;2022-10-16T08:23:13;21.50;62.70
28087;DHT22;15392;48.912;8.380;2022-10-16T08:25:40;21.60;62.50
28087;DHT22;15392;48.912;8.380;2022-10-16T08:28:08;21.60;62.20
28087;DHT22;15392;48.912;8.380;2022-10-16T08:30:35;21.60;62.00
28087;DHT22;15392;48.912;8.380;2022-10-16T08:33:01;21.60;61.80
28087;DHT22;15392;48.912;8.380;2022-10-16T08:35:28;21.70;61.90
28087;DHT22;15392;48.912;8.380;2022-10-16T08:37:54;21.70;62.00
28087;DHT22;15392;48.912;8.380;2022-10-16T08:40:24;21.70;61.90
28087;DHT22;15392;48.912;8.380;2022-10-16T08:46:31;21.80;62.30
28087;DHT22;15392;48.912;8.380;2022-10-16T08:48:59;21.80;62.30
28087;DHT22;15392;48.912;8.380;2022-10-16T08:51:31;21.80;61.90
28087;DHT22;15392;48.912;8.380;2022-10-16T08:54:03;21.90;62.20
28087;DHT22;15392;48.912;8.380;2022-10-16T08:56:30;21.90;62.20
28087;DHT22;15392;48.912;8.380;2022-10-16T08:58:58;22.00;62.10
28087;DHT22;15392;48.912;8.380;2022-10-16T09:01:33;22.00;62.00
28087;DHT22;15392;48.912;8.380;2022-10-16T09:10:11;22.10;61.90
28087;DHT22;15392;48.912;8.380;2022-10-16T09:13:11;22.20;61.80
28087;DHT22;15392;48.912;8.380;2022-10-16T09:15:59;22.30;62.00
28087;DHT22;15392;48.912;8.380;2022-10-16T09:21:43;22.30;61.80
28087;DHT22;15392;48.912;8.380;2022-10-16T09:24:15;22.40;61.60
28087;DHT22;15392;48.912;8.380;2022-10-16T09:26:45;22.40;61.60
28087;DHT22;15392;48.912;8.380;2022-10-16T09:29:17;22.40;61.50
28087;DHT22;15392;48.912;8.380;2022-10-16T09:31:47;22.50;61.80
28087;DHT22;15392;48.912;8.380;2022-10-16T09:34:34;22.50;61.70
28087;DHT22;15392;48.912;8.380;2022-10-16T09:37:04;22.60;61.80
28087;DHT22;15392;48.912;8.380;2022-10-16T09:39:45;22.60;61.60
28087;DHT22;15392;48.912;8.380;2022-10-16T09:42:16;22.70;61.60
28087;DHT22;15392;48.912;8.380;2022-10-16T09:44:50;22.70;61.60
28087;DHT22;15392;48.912;8.380;2022-10-16T09:47:22;22.80;61.60
28087;DHT22;15392;48.912;8.380;2022-10-16T09:50:01;22.80;61.50
28087;DHT22;15392;48.912;8.380;2022-10-16T09:52:31;22.80;61.40
28087;DHT22;15392;48.912;8.380;2022-10-16T09:55:13;22.90;61.10
28087;DHT22;15392;48.912;8.380;2022-10-16T09:57:54;22.90;61.10
28087;DHT22;15392;48.912;8.380;2022-10-16T10:00:22;23.00;61.20
28087;DHT22;15392;48.912;8.380;2022-10-16T10:02:49;23.10;61.50
28087;DHT22;15392;48.912;8.380;2022-10-16T10:05:21;23.20;61.30
28087;DHT22;15392;48.912;8.380;2022-10-16T10:07:58;23.30;60.90
28087;DHT22;15392;48.912;8.380;2022-10-16T10:10:30;23.40;61.00
28087;DHT22;15392;48.912;8.380;2022-10-16T10:12:58;23.40;60.70
28087;DHT22;15392;48.912;8.380;2022-10-16T10:15:24;23.50;60.80
28087;DHT22;15392;48.912;8.380;2022-10-16T10:17:58;23.60;60.60
28087;DHT22;15392;48.912;8.380;2022-10-16T10:23:13;23.70;60.30
28087;DHT22;15392;48.912;8.380;2022-10-16T10:26:05;23.80;60.20
28087;DHT22;15392;48.912;8.380;2022-10-16T10:31:34;23.90;59.70
28087;DHT22;15392;48.912;8.380;2022-10-16T10:40:39;24.00;59.70
28087;DHT22;15392;48.912;8.380;2022-10-16T10:43:29;24.00;59.40
28087;DHT22;15392;48.912;8.380;2022-10-16T10:46:12;24.00;59.50
28087;DHT22;15392;48.912;8.380;2022-10-16T10:55:03;24.10;59.40
28087;DHT22;15392;48.912;8.380;2022-10-16T11:11:03;24.20;58.70
28087;DHT22;15392;48.912;8.380;2022-10-16T11:13:43;24.20;59.10
28087;DHT22;15392;48.912;8.380;2022-10-16T11:16:35;24.20;59.00
28087;DHT22;15392;48.912;8.380;2022-10-16T11:19:13;24.20;59.40
28087;DHT22;15392;48.912;8.380;2022-10-16T11:21:51;24.30;59.20
28087;DHT22;15392;48.912;8.380;2022-10-16T11:27:56;24.30;58.90
28087;DHT22;15392;48.912;8.380;2022-10-16T11:33:24;24.50;59.10
28087;DHT22;15392;48.912;8.380;2022-10-16T11:41:48;24.60;58.20
28087;DHT22;15392;48.912;8.380;2022-10-16T11:47:24;24.70;58.70
28087;DHT22;15392;48.912;8.380;2022-10-16T11:49:58;24.70;58.30
28087;DHT22;15392;48.912;8.380;2022-10-16T11:52:41;24.80;58.60
28087;DHT22;15392;48.912;8.380;2022-10-16T11:55:20;24.80;58.50
28087;DHT22;15392;48.912;8.380;2022-10-16T11:57:58;24.90;58.10
28087;DHT22;15392;48.912;8.380;2022-10-16T12:03:42;25.00;57.70
28087;DHT22;15392;48.912;8.380;2022-10-16T12:11:56;25.10;58.10
28087;DHT22;15392;48.912;8.380;2022-10-16T12:14:41;25.10;58.30
28087;DHT22;15392;48.912;8.380;2022-10-16T12:17:23;25.20;57.20
28087;DHT22;15392;48.912;8.380;2022-10-16T12:20:19;25.20;57.40
28087;DHT22;15392;48.912;8.380;2022-10-16T12:25:29;25.20;57.70
28087;DHT22;15392;48.912;8.380;2022-10-16T12:30:41;25.30;56.90
28087;DHT22;15392;48.912;8.380;2022-10-16T12:35:50;25.30;57.10
28087;DHT22;15392;48.912;8.380;2022-10-16T12:38:36;25.30;57.80
28087;DHT22;15392;48.912;8.380;2022-10-16T12:41:06;25.30;58.00
28087;DHT22;15392;48.912;8.380;2022-10-16T12:43:42;25.30;57.90
28087;DHT22;15392;48.912;8.380;2022-10-16T12:48:41;25.40;58.00
28087;DHT22;15392;48.912;8.380;2022-10-16T12:51:40;25.40;58.10
28087;DHT22;15392;48.912;8.380;2022-10-16T12:54:28;25.40;57.40
28087;DHT22;15392;48.912;8.380;2022-10-16T13:06:17;25.50;57.70
28087;DHT22;15392;48.912;8.380;2022-10-16T13:08:50;25.50;57.50
28087;DHT22;15392;48.912;8.380;2022-10-16T13:11:49;25.60;57.90
28087;DHT22;15392;48.912;8.380;2022-10-16T13:18:08;25.60;57.40
28087;DHT22;15392;48.912;8.380;2022-10-16T13:29:06;25.60;57.90
28087;DHT22;15392;48.912;8.380;2022-10-16T13:31:32;25.70;58.00
28087;DHT22;15392;48.912;8.380;2022-10-16T13:34:00;25.70;58.00
28087;DHT22;15392;48.912;8.380;2022-10-16T13:36:28;25.70;57.80
28087;DHT22;15392;48.912;8.380;2022-10-16T13:41:40;25.70;57.40
28087;DHT22;15392;48.912;8.380;2022-10-16T13:44:18;25.70;58.00
28087;DHT22;15392;48.912;8.380;2022-10-16T13:46:45;25.70;58.50
28087;DHT22;15392;48.912;8.380;2022-10-16T13:49:16;25.70;58.50
28087;DHT22;15392;48.912;8.380;2022-10-16T13:51:59;25.70;58.40
28087;DHT22;15392;48.912;8.380;2022-10-16T13:54:26;25.70;58.30
28087;DHT22;15392;48.912;8.380;2022-10-16T13:56:54;25.70;58.50
28087;DHT22;15392;48.912;8.380;2022-10-16T13:59:24;25.70;58.70
28087;DHT22;15392;48.912;8.380;2022-10-16T14:01:58;25.70;58.70
28087;DHT22;15392;48.912;8.380;2022-10-16T14:04:29;25.70;58.80
28087;DHT22;15392;48.912;8.380;2022-10-16T14:06:57;25.70;58.80
28087;DHT22;15392;48.912;8.380;2022-10-16T14:09:24;25.60;58.80
28087;DHT22;15392;48.912;8.380;2022-10-16T14:12:00;25.60;58.80
28087;DHT22;15392;48.912;8.380;2022-10-16T14:14:34;25.60;58.90
28087;DHT22;15392;48.912;8.380;2022-10-16T14:17:14;25.60;58.90
28087;DHT22;15392;48.912;8.380;2022-10-16T14:19:52;25.60;59.00
28087;DHT22;15392;48.912;8.380;2022-10-16T14:22:22;25.50;58.90
28087;DHT22;15392;48.912;8.380;2022-10-16T14:24:52;25.50;59.00
28087;DHT22;15392;48.912;8.380;2022-10-16T14:27:33;25.60;59.10
28087;DHT22;15392;48.912;8.380;2022-10-16T14:30:19;25.50;58.90
28087;DHT22;15392;48.912;8.380;2022-10-16T14:33:04;25.60;58.50
28087;DHT22;15392;48.912;8.380;2022-10-16T14:35:37;25.60;58.60
28087;DHT22;15392;48.912;8.380;2022-10-16T14:38:05;25.60;58.30
28087;DHT22;15392;48.912;8.380;2022-10-16T14:40:36;25.60;58.30
28087;DHT22;15392;48.912;8.380;2022-10-16T14:43:04;25.60;58.60
28087;DHT22;15392;48.912;8.380;2022-10-16T14:45:33;25.60;58.80
28087;DHT22;15392;48.912;8.380;2022-10-16T14:48:02;25.60;58.90
28087;DHT22;15392;48.912;8.380;2022-10-16T14:50:38;25.60;58.90
28087;DHT22;15392;48.912;8.380;2022-10-16T14:53:11;25.60;58.90
28087;DHT22;15392;48.912;8.380;2022-10-16T14:55:38;25.60;58.50
28087;DHT22;15392;48.912;8.380;2022-10-16T14:58:07;25.60;58.50
28087;DHT22;15392;48.912;8.380;2022-10-16T15:00:38;25.70;58.40
28087;DHT22;15392;48.912;8.380;2022-10-16T15:03:04;25.70;58.30
28087;DHT22;15392;48.912;8.380;2022-10-16T15:05:30;25.70;58.10
28087;DHT22;15392;48.912;8.380;2022-10-16T15:07:57;25.70;58.10
28087;DHT22;15392;48.912;8.380;2022-10-16T15:10:24;25.70;58.50
28087;DHT22;15392;48.912;8.380;2022-10-16T15:12:52;25.70;58.70
28087;DHT22;15392;48.912;8.380;2022-10-16T15:15:30;25.70;58.60
28087;DHT22;15392;48.912;8.380;2022-10-16T15:17:59;25.70;58.60
28087;DHT22;15392;48.912;8.380;2022-10-16T15:20:32;25.80;58.80
28087;DHT22;15392;48.912;8.380;2022-10-16T15:23:13;25.80;58.80
28087;DHT22;15392;48.912;8.380;2022-10-16T15:25:47;25.80;58.90
28087;DHT22;15392;48.912;8.380;2022-10-16T15:28:15;25.80;58.90
28087;DHT22;15392;48.912;8.380;2022-10-16T15:30:42;25.80;58.80
28087;DHT22;15392;48.912;8.380;2022-10-16T15:33:15;25.80;58.80
28087;DHT22;15392;48.912;8.380;2022-10-16T15:35:46;25.80;58.80
28087;DHT22;15392;48.912;8.380;2022-10-16T15:38:13;25.80;58.80
28087;DHT22;15392;48.912;8.380;2022-10-16T15:40:39;25.90;58.60
28087;DHT22;15392;48.912;8.380;2022-10-16T15:43:06;25.80;58.40
28087;DHT22;15392;48.912;8.380;2022-10-16T15:45:32;25.80;58.10
28087;DHT22;15392;48.912;8.380;2022-10-16T15:47:57;25.80;58.20
28087;DHT22;15392;48.912;8.380;2022-10-16T15:50:23;25.80;58.40
28087;DHT22;15392;48.912;8.380;2022-10-16T15:52:50;25.70;58.40
28087;DHT22;15392;48.912;8.380;2022-10-16T15:55:16;25.70;58.40
28087;DHT22;15392;48.912;8.380;2022-10-16T15:57:44;25.70;58.40
28087;DHT22;15392;48.912;8.380;2022-10-16T16:00:17;25.70;58.40
28087;DHT22;15392;48.912;8.380;2022-10-16T16:02:51;25.60;58.40
28087;DHT22;15392;48.912;8.380;2022-10-16T16:05:18;25.60;58.50
28087;DHT22;15392;48.912;8.380;2022-10-16T16:07:45;25.60;58.60
28087;DHT22;15392;48.912;8.380;2022-10-16T16:10:11;25.60;58.70
28087;DHT22;15392;48.912;8.380;2022-10-16T16:12:38;25.50;58.70
28087;DHT22;15392;48.912;8.380;2022-10-16T16:15:05;25.60;58.70
28087;DHT22;15392;48.912;8.380;2022-10-16T16:17:33;25.50;58.60
28087;DHT22;15392;48.912;8.380;2022-10-16T16:19:59;25.50;58.60
28087;DHT22;15392;48.912;8.380;2022-10-16T16:22:25;25.40;58.60
28087;DHT22;15392;48.912;8.380;2022-10-16T16:24:51;25.40;58.60
28087;DHT22;15392;48.912;8.380;2022-10-16T16:27:17;25.40;58.50
28087;DHT22;15392;48.912;8.380;2022-10-16T16:29:43;25.30;58.40
28087;DHT22;15392;48.912;8.380;2022-10-16T16:32:08;25.30;58.30
28087;DHT22;15392;48.912;8.380;2022-10-16T16:34:34;25.20;58.20
28087;DHT22;15392;48.912;8.380;2022-10-16T16:37:00;25.10;58.10
28087;DHT22;15392;48.912;8.380;2022-10-16T16:39:25;25.00;58.00
28087;DHT22;15392;48.912;8.380;2022-10-16T16:41:51;25.00;58.00
28087;DHT22;15392;48.912;8.380;2022-10-16T16:44:17;24.90;58.20
28087;DHT22;15392;48.912;8.380;2022-10-16T16:46:44;24.90;58.30
28087;DHT22;15392;48.912;8.380;2022-10-16T16:49:11;24.80;58.40
28087;DHT22;15392;48.912;8.380;2022-10-16T16:51:38;24.70;58.30
28087;DHT22;15392;48.912;8.380;2022-10-16T16:54:04;24.70;58.40
28087;DHT22;15392;48.912;8.380;2022-10-16T16:56:32;24.60;58.30
28087;DHT22;15392;48.912;8.380;2022-10-16T16:58:58;24.60;58.30
28087;DHT22;15392;48.912;8.380;2022-10-16T17:01:26;24.50;58.30
28087;DHT22;15392;48.912;8.380;2022-10-16T17:03:55;24.40;58.30
28087;DHT22;15392;48.912;8.380;2022-10-16T17:06:24;24.30;58.20
28087;DHT22;15392;48.912;8.380;2022-10-16T17:08:51;24.30;58.30
28087;DHT22;15392;48.912;8.380;2022-10-16T17:11:23;24.20;58.20
28087;DHT22;15392;48.912;8.380;2022-10-16T17:13:51;24.20;59.00
28087;DHT22;15392;48.912;8.380;2022-10-16T17:16:20;24.10;58.60
28087;DHT22;15392;48.912;8.380;2022-10-16T17:18:46;24.10;58.70
28087;DHT22;15392;48.912;8.380;2022-10-16T17:21:12;24.00;58.80
28087;DHT22;15392;48.912;8.380;2022-10-16T17:23:38;24.00;58.90
28087;DHT22;15392;48.912;8.380;2022-10-16T17:26:10;23.90;58.80
28087;DHT22;15392;48.912;8.380;2022-10-16T17:28:39;24.00;58.70
28087;DHT22;15392;48.912;8.380;2022-10-16T17:31:11;23.90;58.70
28087;DHT22;15392;48.912;8.380;2022-10-16T17:33:43;23.90;58.60
28087;DHT22;15392;48.912;8.380;2022-10-16T17:36:09;23.90;59.20
28087;DHT22;15392;48.912;8.380;2022-10-16T17:38:36;23.80;58.40
28087;DHT22;15392;48.912;8.380;2022-10-16T17:41:20;23.80;58.30
28087;DHT22;15392;48.912;8.380;2022-10-16T17:43:47;23.90;58.00
28087;DHT22;15392;48.912;8.380;2022-10-16T17:46:15;23.80;58.10
28087;DHT22;15392;48.912;8.380;2022-10-16T17:48:45;23.80;58.20
28087;DHT22;15392;48.912;8.380;2022-10-16T17:51:16;23.80;58.20